Time;durP1;ratioP1;P1;durP2;ratioP2;P2;SDS_P1;SDS_P2;PMS_P1;PMS_P2;Temp;Humidity;BMP_temperature;BMP_pressure;BME280_temperature;BME280_humidity;BME280_pressure;Samples;Min_cycle;Max_cycle;Signal;HPM_P1;HPM_P2
2023/06/14 00:02:08;;;;;;;1999.90;999.90;;;20.00;80.20;;;;;;6757289;88;20288;-78
2023/06/14 00:12:09;;;;;;;1999.90;999.90;;;19.80;79.50;;;;;;6756407;88;20717;-77
2023/06/14 00:22:10;;;;;;;1999.90;999.90;;;19.70;79.60;;;;;;6757082;88;20200;-77
2023/06/14 00:32:11;;;;;;;1999.90;999.90;;;19.60;80.70;;;;;;6759581;88;20217;-78
2023/06/14 00:42:11;;;;;;;1999.90;999.90;;;19.60;80.70;;;;;;6761499;88;20289;-77
2023/06/14 00:52:12;;;;;;;1999.90;999.90;;;19.60;79.80;;;;;;6754471;88;20736;-78
2023/06/14 01:02:16;;;;;;;1999.90;999.90;;;19.50;82.40;;;;;;6757377;88;20735;-77
2023/06/14 01:12:48;;;;;;;1999.90;999.90;;;19.50;78.10;;;;;;6756168;88;20880;-79
2023/06/14 01:22:55;;;;;;;1999.90;999.90;;;19.50;80.40;;;;;;6757657;88;20514;-78
2023/06/14 01:32:57;;;;;;;1999.90;999.90;;;19.30;81.00;;;;;;6752924;88;20216;-78
2023/06/14 01:42:58;;;;;;;1999.90;999.90;;;19.20;82.10;;;;;;6753712;88;20214;-78
2023/06/14 01:52:59;;;;;;;1999.90;999.90;;;19.00;83.80;;;;;;6761037;88;20170;-80
2023/06/14 02:03:00;;;;;;;1999.90;999.90;;;18.60;82.70;;;;;;6756224;88;20231;-77
2023/06/14 02:13:01;;;;;;;1999.90;999.90;;;18.60;84.30;;;;;;6756250;88;20575;-76
2023/06/14 02:23:01;;;;;;;1999.90;999.90;;;18.50;86.30;;;;;;6758440;88;20240;-75
2023/06/14 02:33:02;;;;;;;1999.90;999.90;;;18.40;87.00;;;;;;6759326;88;20138;-78
2023/06/14 02:43:03;;;;;;;1999.90;999.90;;;18.10;86.70;;;;;;6745089;88;20186;-78
2023/06/14 02:53:03;;;;;;;1999.90;999.90;;;17.80;89.30;;;;;;6739595;88;20259;-78
2023/06/14 03:03:04;;;;;;;1999.90;999.90;;;17.70;90.80;;;;;;6733689;88;20225;-78
2023/06/14 03:13:05;;;;;;;1999.90;999.90;;;17.60;92.80;;;;;;6739203;88;20200;-78
2023/06/14 03:23:06;;;;;;;1999.90;999.90;;;17.50;93.80;;;;;;6753092;88;20499;-78
2023/06/14 03:33:07;;;;;;;1999.90;999.90;;;17.40;95.20;;;;;;6759869;88;20284;-78
2023/06/14 03:43:07;;;;;;;1999.90;999.90;;;17.20;96.90;;;;;;6736192;88;20209;-78
2023/06/14 03:53:08;;;;;;;1999.90;999.90;;;17.20;97.20;;;;;;6740720;88;20205;-78
2023/06/14 04:03:09;;;;;;;1999.90;999.90;;;17.20;97.10;;;;;;6740019;88;20211;-78
2023/06/14 04:13:13;;;;;;;1999.90;999.90;;;17.30;99.50;;;;;;6741585;88;20193;-78
2023/06/14 04:23:15;;;;;;;1999.90;999.90;;;17.20;99.90;;;;;;6751598;88;20256;-78
2023/06/14 04:33:17;;;;;;;1999.90;999.90;;;17.20;99.90;;;;;;6738238;88;20221;-78
2023/06/14 04:43:18;;;;;;;1999.90;999.90;;;17.30;99.90;;;;;;6735270;88;20202;-79
2023/06/14 04:53:22;;;;;;;1999.90;999.90;;;17.40;99.90;;;;;;6741836;88;20219;-78
2023/06/14 05:03:23;;;;;;;1999.90;999.90;;;17.60;99.90;;;;;;6743605;88;20353;-78
2023/06/14 05:13:24;;;;;;;1999.90;999.90;;;17.70;99.90;;;;;;6736093;88;20214;-77
2023/06/14 05:23:24;;;;;;;1999.90;999.90;;;17.70;99.90;;;;;;6736389;88;20834;-78
2023/06/14 05:33:25;;;;;;;1999.90;999.90;;;17.70;99.90;;;;;;6735608;88;20703;-77
2023/06/14 05:43:25;;;;;;;1999.90;999.90;;;17.90;99.90;;;;;;6731352;88;20651;-78
2023/06/14 05:53:26;;;;;;;1999.90;999.90;;;18.20;94.70;;;;;;6732901;88;20192;-77
2023/06/14 06:03:29;;;;;;;1999.90;999.90;;;18.60;92.20;;;;;;6732679;88;20186;-77
2023/06/14 06:13:29;;;;;;;1999.90;999.90;;;19.30;90.70;;;;;;6735773;88;20239;-79
2023/06/14 06:23:30;;;;;;;1999.90;999.90;;;20.10;89.70;;;;;;6733563;88;20220;-78
2023/06/14 06:33:30;;;;;;;1999.90;999.90;;;20.60;88.00;;;;;;6733882;88;20370;-77
2023/06/14 06:43:31;;;;;;;1999.90;999.90;;;21.50;87.00;;;;;;6738459;88;20342;-77
2023/06/14 06:53:31;;;;;;;1999.90;999.90;;;21.80;85.50;;;;;;6734929;88;20233;-78
2023/06/14 07:03:32;;;;;;;1999.90;999.90;;;22.20;85.70;;;;;;6741640;88;20207;-78
2023/06/14 07:13:32;;;;;;;1999.90;999.90;;;22.80;83.50;;;;;;6745762;88;20173;-78
2023/06/14 07:23:33;;;;;;;1999.90;999.90;;;22.40;79.80;;;;;;6755118;88;20178;-78
2023/06/14 07:33:34;;;;;;;1999.90;999.90;;;22.50;79.40;;;;;;6739578;88;20295;-78
2023/06/14 07:43:34;;;;;;;1999.90;999.90;;;22.80;80.30;;;;;;6736893;88;20286;-77
2023/06/14 07:53:35;;;;;;;1999.90;999.90;;;23.70;77.30;;;;;;6745206;88;20197;-78
2023/06/14 08:03:35;;;;;;;1999.90;999.90;;;25.10;76.60;;;;;;6734766;88;20236;-79
2023/06/14 08:13:36;;;;;;;1999.90;999.90;;;24.50;74.00;;;;;;6741569;88;20205;-79
2023/06/14 08:23:36;;;;;;;1999.90;999.90;;;25.30;73.60;;;;;;6745120;88;20319;-79
2023/06/14 08:33:38;;;;;;;1999.90;999.90;;;25.20;70.10;;;;;;6742320;88;20338;-79
2023/06/14 08:53:43;;;;;;;1999.90;999.90;;;26.00;69.00;;;;;;6778569;87;20265;-81
2023/06/14 09:03:44;;;;;;;1999.90;999.90;;;26.50;68.30;;;;;;6764047;88;20636;-82
2023/06/14 09:13:49;;;;;;;1999.90;999.90;;;25.80;65.80;;;;;;6761845;88;20207;-82
2023/06/14 09:23:50;;;;;;;1999.90;999.90;;;27.30;64.20;;;;;;6763518;87;20222;-82
2023/06/14 09:33:51;;;;;;;1999.90;999.90;;;27.40;65.90;;;;;;6763746;87;20183;-83
2023/06/14 09:43:51;;;;;;;1999.90;999.90;;;27.90;64.20;;;;;;6765832;87;20255;-82
2023/06/14 09:53:53;;;;;;;1999.90;999.90;;;29.10;62.40;;;;;;6764420;87;20535;-82
2023/06/14 10:04:03;;;;;;;1999.90;999.90;;;28.20;62.70;;;;;;6767576;87;20250;-83
2023/06/14 10:14:06;;;;;;;1999.90;999.90;;;30.00;62.90;;;;;;6769017;87;20226;-82
2023/06/14 10:24:10;;;;;;;1999.90;999.90;;;30.10;60.30;;;;;;6750283;88;20196;-82
2023/06/14 10:34:12;;;;;;;1999.90;999.90;;;28.70;61.70;;;;;;6751419;88;20187;-84
2023/06/14 10:44:13;;;;;;;1999.90;999.90;;;30.70;60.30;;;;;;6755707;88;20244;-82
2023/06/14 10:54:14;;;;;;;1999.90;999.90;;;31.50;59.60;;;;;;6767716;87;20219;-84
2023/06/14 11:04:20;;;;;;;1999.90;999.90;;;30.50;60.30;;;;;;6768894;87;20621;-82
2023/06/14 11:14:20;;;;;;;1999.90;999.90;;;29.70;61.30;;;;;;6770527;87;20246;-82
2023/06/14 11:24:21;;;;;;;1999.90;999.90;;;29.90;60.40;;;;;;6766414;88;20175;-82
2023/06/14 11:34:22;;;;;;;1999.90;999.90;;;30.60;61.10;;;;;;6770008;88;20180;-83
2023/06/14 11:44:23;;;;;;;1999.90;999.90;;;29.70;61.50;;;;;;6773192;87;20254;-82
2023/06/14 11:54:24;;;;;;;1999.90;999.90;;;29.00;61.90;;;;;;6773517;87;20220;-80
2023/06/14 12:24:32;;;;;;;1999.90;999.90;;;31.40;59.30;;;;;;6791696;87;20206;-82
2023/06/14 13:14:46;;;;;;;1999.90;999.90;;;31.50;59.30;;;;;;6731600;88;20221;-82
2023/06/14 13:24:47;;;;;;;1999.90;999.90;;;30.40;59.70;;;;;;6776118;88;20196;-82
2023/06/14 14:15:22;;;;;;;1999.90;999.90;;;29.40;60.60;;;;;;7093092;77;20184;-82
2023/06/14 14:25:23;;;;;;;1999.90;999.90;;;29.90;60.20;;;;;;7144935;78;20262;31
2023/06/14 14:46:08;;;;;;;1999.90;999.90;;;29.70;60.60;;;;;;6960808;76;20666;-79
2023/06/14 14:56:08;;;;;;;1999.90;999.90;;;30.40;60.00;;;;;;6747200;88;20244;-79
2023/06/14 15:06:09;;;;;;;1999.90;999.90;;;29.20;60.70;;;;;;6751733;88;20209;-80
2023/06/14 15:16:10;;;;;;;1999.90;999.90;;;29.30;59.70;;;;;;6749733;88;20188;-79
2023/06/14 15:26:10;;;;;;;1999.90;999.90;;;28.10;61.10;;;;;;6746603;88;20181;-79
2023/06/14 15:36:11;;;;;;;1999.90;999.90;;;27.70;61.80;;;;;;6747060;88;20193;-81
2023/06/14 15:46:11;;;;;;;1999.90;999.90;;;28.00;61.70;;;;;;6748287;87;20287;-81
2023/06/14 15:56:12;;;;;;;1999.90;999.90;;;27.50;62.40;;;;;;6746117;88;20762;-79
2023/06/14 16:06:12;;;;;;;1999.90;999.90;;;28.20;60.30;;;;;;6745990;88;20201;-79
2023/06/14 16:16:13;;;;;;;1999.90;999.90;;;28.20;60.50;;;;;;6746676;88;20234;-79
2023/06/14 16:26:15;;;;;;;1999.90;999.90;;;28.20;60.50;;;;;;6747585;88;20177;-81
2023/06/14 16:36:15;;;;;;;1999.90;999.90;;;27.70;61.30;;;;;;6745838;88;20227;-76
2023/06/14 16:46:31;;;;;;;1999.90;999.90;;;26.70;61.70;;;;;;6729623;88;20356;-77
2023/06/14 16:56:31;;;;;;;1999.90;999.90;;;26.50;63.00;;;;;;6689807;88;20181;-78
2023/06/14 17:06:32;;;;;;;1999.90;999.90;;;27.60;61.80;;;;;;6711042;88;20993;-76
2023/06/14 17:16:32;;;;;;;1999.90;999.90;;;27.80;61.20;;;;;;6712441;88;20617;-77
2023/06/14 17:26:33;;;;;;;1999.90;999.90;;;27.40;61.40;;;;;;6728494;88;20267;-79
2023/06/14 17:36:33;;;;;;;1999.90;999.90;;;28.10;60.10;;;;;;6741466;88;20178;-79
2023/06/14 17:46:34;;;;;;;1999.90;999.90;;;27.30;60.70;;;;;;6729516;88;20202;-79
2023/06/14 17:56:35;;;;;;;1999.90;999.90;;;27.10;61.10;;;;;;6723181;88;20208;-80
2023/06/14 18:06:35;;;;;;;1999.90;999.90;;;26.30;62.70;;;;;;6729481;88;20245;-81
2023/06/14 18:16:36;;;;;;;1999.90;999.90;;;26.50;62.30;;;;;;6734525;88;20209;-82
2023/06/14 18:26:36;;;;;;;1999.90;999.90;;;26.20;62.30;;;;;;6739918;88;20234;-80
2023/06/14 18:36:38;;;;;;;1999.90;999.90;;;26.00;62.30;;;;;;6731945;88;20207;-79
2023/06/14 18:46:39;;;;;;;1999.90;999.90;;;25.80;64.60;;;;;;6707482;87;20722;-78
2023/06/14 18:56:40;;;;;;;1999.90;999.90;;;25.70;64.60;;;;;;6720312;88;20264;-78
2023/06/14 19:06:40;;;;;;;1999.90;999.90;;;25.40;65.70;;;;;;6712443;88;20485;-79
2023/06/14 19:16:41;;;;;;;1999.90;999.90;;;25.00;65.80;;;;;;6691397;88;20170;-77
2023/06/14 19:26:42;;;;;;;1999.90;999.90;;;24.60;66.10;;;;;;6719066;88;20271;-79
2023/06/14 19:36:43;;;;;;;1999.90;999.90;;;24.40;68.30;;;;;;6699974;88;20620;-79
2023/06/14 19:46:43;;;;;;;1999.90;999.90;;;23.90;68.70;;;;;;6723836;88;20220;-79
2023/06/14 19:56:45;;;;;;;1999.90;999.90;;;23.60;69.10;;;;;;6719492;88;20189;-78
2023/06/14 20:06:45;;;;;;;1999.90;999.90;;;23.40;69.00;;;;;;6700699;88;20212;-79
2023/06/14 20:16:46;;;;;;;1999.90;999.90;;;23.10;69.80;;;;;;6665179;88;20211;-79
2023/06/14 20:26:46;;;;;;;1999.90;999.90;;;22.80;70.20;;;;;;6698801;88;20727;-79
2023/06/14 20:36:47;;;;;;;1999.90;999.90;;;22.50;70.60;;;;;;6656926;88;20338;-79
2023/06/14 20:58:10;;;;;;;1999.90;999.90;;;22.00;71.70;;;;;;6767236;87;20266;-81
2023/06/14 21:08:10;;;;;;;1999.90;999.90;;;21.60;73.50;;;;;;6671299;88;20795;-82
2023/06/14 21:18:11;;;;;;;1999.90;999.90;;;21.50;73.20;;;;;;6672266;88;20230;-80
2023/06/14 21:28:11;;;;;;;1999.90;999.90;;;21.40;73.90;;;;;;6663553;89;20220;-80
2023/06/14 21:38:12;;;;;;;1999.90;999.90;;;21.10;74.80;;;;;;6668854;89;20172;-81
2023/06/14 21:48:13;;;;;;;1999.90;999.90;;;21.00;75.70;;;;;;6673184;89;20589;-80
2023/06/14 21:58:14;;;;;;;1999.90;999.90;;;20.70;76.70;;;;;;6660972;89;20204;-81
2023/06/14 22:08:16;;;;;;;1999.90;999.90;;;20.50;77.70;;;;;;6661765;88;20205;-80
2023/06/14 22:18:17;;;;;;;1999.90;999.90;;;20.40;77.40;;;;;;6665751;89;20695;-80
2023/06/14 22:28:17;;;;;;;1999.90;999.90;;;20.20;78.40;;;;;;6669455;89;20205;-79
2023/06/14 22:38:19;;;;;;;1999.90;999.90;;;20.00;80.00;;;;;;6671138;88;20232;-80
2023/06/14 22:48:19;;;;;;;1999.90;999.90;;;19.90;80.50;;;;;;6671426;89;20982;-80
2023/06/14 22:58:24;;;;;;;1999.90;999.90;;;19.50;80.50;;;;;;6671643;89;20195;-80
2023/06/14 23:08:28;;;;;;;1999.90;999.90;;;19.50;81.20;;;;;;6665937;88;20243;-80
2023/06/14 23:18:29;;;;;;;1999.90;999.90;;;19.40;83.00;;;;;;6671726;89;20210;-79
2023/06/14 23:28:33;;;;;;;1999.90;999.90;;;19.30;82.20;;;;;;6650806;89;20189;-78
2023/06/14 23:38:41;;;;;;;1999.90;999.90;;;19.10;84.20;;;;;;6652914;89;20187;-78
2023/06/14 23:48:42;;;;;;;1999.90;999.90;;;18.90;85.30;;;;;;6736567;88;20251;-79
2023/06/14 23:58:44;;;;;;;1999.90;999.90;;;18.90;86.20;;;;;;6677513;88;20198;-80
